This is the latest recevied weather packets stored in our database for station/object HB9SZU-6. If no packets are shown the sender has not sent any weather packets the latest 10 day(s).
| Time | Temp. | Humidity | Pressure | Rain* | Wind** | Luminosity | Snow |
|---|---|---|---|---|---|---|---|
| 1777614490 | 13.89° C | 55% | 1032.5 hPa | 0 mm | - | - | - |
| 1777613590 | 13.89° C | 57% | 1031.8 hPa | 0 mm | - | - | - |
| 1777612690 | 13.89° C | 57% | 1031.8 hPa | 0 mm | - | - | - |
| 1777611790 | 13.89° C | 57% | 1031.8 hPa | 0 mm | - | - | - |
| 1777610890 | 13.89° C | 57% | 1031.8 hPa | 0 mm | - | - | - |
| 1777609990 | 13.89° C | 57% | 1031.7 hPa | 0 mm | - | - | - |
| 1777609090 | 13.89° C | 57% | 1031.6 hPa | 0 mm | - | - | - |
| 1777608190 | 13.89° C | 57% | 1031.4 hPa | 0 mm | - | - | - |
| 1777607290 | 13.89° C | 58% | 1031.3 hPa | 0 mm | - | - | - |
| 1777606390 | 14.44° C | 62% | 1031.1 hPa | 0 mm | - | - | - |
| 1777605490 | 14.44° C | 62% | 1031.1 hPa | 0 mm | - | - | - |
| 1777604590 | 14.44° C | 62% | 1031.1 hPa | 0 mm | - | - | - |
| 1777603689 | 14.44° C | 62% | 1031.1 hPa | 0 mm | - | - | - |
| 1777602790 | 14.44° C | 63% | 1031.2 hPa | 0 mm | - | - | - |
| 1777601890 | 14.44° C | 64% | 1031.1 hPa | 0 mm | - | - | - |
| 1777583890 | 16.67° C | 61% | 1030 hPa | 0 mm | - | - | - |
| 1777580290 | 16.67° C | 59% | 1029.7 hPa | 0 mm | - | - | - |
| 1777571290 | 18.33° C | 54% | 1027.8 hPa | 0 mm | - | - | - |
| 1777555990 | 17.78° C | 54% | 1029.2 hPa | 0 mm | - | - | - |
| 1777547890 | 15.56° C | 62% | 1030.1 hPa | 0 mm | - | - | - |
| 1777546991 | 15.56° C | 62% | 1030.1 hPa | 0 mm | - | - | - |
| 1777545190 | 14.44° C | 66% | 1030.2 hPa | 0 mm | - | - | - |
| 1777544290 | 13.89° C | 68% | 1030 hPa | 0 mm | - | - | - |
| 1777540690 | 12.78° C | 73% | 1030 hPa | 0 mm | - | - | - |
| 1777537090 | 12.78° C | 74% | 1029.7 hPa | 0 mm | - | - | - |
* Rain latest hour (hover to see other rain measurements)
** Current wind speed in m/s (hover to see current wind gust speed)